Aviation Digital Data Service (ADDS)

Output produced by METARs form (1035 UTC 07 December 2016)
found at http://aviationweather.gov/adds/metars/
 
KBPT 070953Z 36004KT 10SM OVC010 13/11 A3003 RMK AO2 SLP169 T01280106